Time;durP1;ratioP1;P1;durP2;ratioP2;P2;SDS_P1;SDS_P2;PMS_P1;PMS_P2;Temp;Humidity;BMP_temperature;BMP_pressure;BME280_temperature;BME280_humidity;BME280_pressure;Samples;Min_cycle;Max_cycle;Signal;HPM_P1;HPM_P2
2021/09/12 00:00:32;;;;;;;6.87;6.17;;;18.00;99.90;;;;;;5013208;28;20176;-75
2021/09/12 00:02:57;;;;;;;6.93;6.03;;;18.00;99.90;;;;;;4996703;28;20199;-75
2021/09/12 00:05:23;;;;;;;7.43;6.43;;;18.00;99.90;;;;;;4996366;28;20219;-75
2021/09/12 00:07:48;;;;;;;7.07;6.37;;;17.90;99.90;;;;;;4996519;28;20191;-75
2021/09/12 00:10:14;;;;;;;7.37;6.57;;;18.00;99.90;;;;;;4979930;28;20609;-75
2021/09/12 00:12:40;;;;;;;8.07;6.30;;;18.00;99.90;;;;;;4980254;28;20180;-75
2021/09/12 00:15:07;;;;;;;7.10;6.37;;;18.00;99.90;;;;;;5013947;28;20176;-75
2021/09/12 00:17:33;;;;;;;6.93;6.23;;;18.00;99.90;;;;;;4979949;28;20207;-75
2021/09/12 00:19:58;;;;;;;7.77;6.17;;;18.00;99.90;;;;;;4996039;28;20180;-75
2021/09/12 00:22:24;;;;;;;8.63;6.60;;;18.00;99.90;;;;;;4979805;28;20175;-75
2021/09/12 00:24:49;;;;;;;8.83;6.53;;;17.90;99.90;;;;;;4980013;28;20178;-75
2021/09/12 00:27:15;;;;;;;8.73;6.93;;;17.90;99.90;;;;;;4996370;28;20215;-75
2021/09/12 00:29:41;;;;;;;7.93;6.20;;;17.90;99.90;;;;;;4979996;28;20197;-75
2021/09/12 00:32:06;;;;;;;8.60;5.90;;;17.90;99.90;;;;;;4995992;28;20270;-75
2021/09/12 00:34:32;;;;;;;8.67;6.80;;;17.90;99.90;;;;;;4996185;28;20226;-75
2021/09/12 00:36:57;;;;;;;8.27;6.60;;;18.00;99.90;;;;;;4979676;28;20701;-75
2021/09/12 00:39:23;;;;;;;11.10;7.50;;;18.00;99.90;;;;;;4995871;28;20825;-75
2021/09/12 00:41:49;;;;;;;12.07;7.97;;;17.90;99.90;;;;;;4996815;28;20655;-74
2021/09/12 00:44:15;;;;;;;10.80;8.10;;;17.90;99.90;;;;;;4982847;28;20651;-74
2021/09/12 00:46:42;;;;;;;11.27;8.87;;;17.90;99.90;;;;;;4982932;28;20773;-74
2021/09/12 00:49:08;;;;;;;11.67;9.57;;;17.90;99.90;;;;;;4998706;28;20643;-74
2021/09/12 00:51:34;;;;;;;13.03;9.43;;;17.90;99.90;;;;;;4998457;28;20187;-74
2021/09/12 00:54:01;;;;;;;15.67;10.00;;;17.90;99.90;;;;;;4981720;28;20183;-76
2021/09/12 00:56:27;;;;;;;13.00;9.80;;;18.00;99.90;;;;;;4980996;28;20298;-74
2021/09/12 00:58:54;;;;;;;12.33;9.57;;;18.00;99.90;;;;;;4998996;28;20274;-75
2021/09/12 01:01:19;;;;;;;13.03;10.17;;;18.00;99.90;;;;;;4982387;28;20215;-74
2021/09/12 01:03:45;;;;;;;15.37;10.60;;;17.90;99.90;;;;;;4998688;28;20195;-74
2021/09/12 01:06:10;;;;;;;12.67;9.90;;;17.90;99.90;;;;;;4999568;28;20214;-74
2021/09/12 01:08:37;;;;;;;13.93;10.23;;;17.90;99.90;;;;;;4998648;28;20176;-74
2021/09/12 01:11:02;;;;;;;14.37;10.27;;;17.90;99.90;;;;;;4999207;28;20700;-75
2021/09/12 01:13:28;;;;;;;12.80;10.07;;;17.80;99.90;;;;;;5016016;28;20184;-75
2021/09/12 01:15:53;;;;;;;13.67;10.77;;;17.90;99.90;;;;;;4998492;28;20195;-74
2021/09/12 01:18:19;;;;;;;15.03;11.33;;;17.80;99.90;;;;;;4998660;28;20182;-74
2021/09/12 01:20:45;;;;;;;15.90;11.03;;;17.90;99.90;;;;;;4998072;28;20214;-74
2021/09/12 01:23:10;;;;;;;13.80;11.30;;;17.90;99.90;;;;;;4997976;28;20553;-74
2021/09/12 01:25:36;;;;;;;16.30;12.27;;;17.80;99.90;;;;;;4996922;28;20203;-74
2021/09/12 01:28:03;;;;;;;14.23;11.63;;;17.90;99.90;;;;;;4997739;28;20218;-75
2021/09/12 01:30:29;;;;;;;14.33;11.80;;;17.90;99.90;;;;;;4996536;28;20589;-74
2021/09/12 01:32:54;;;;;;;16.47;12.37;;;17.90;99.90;;;;;;4998443;28;20374;-75
2021/09/12 01:35:20;;;;;;;16.37;12.63;;;17.90;99.90;;;;;;4980873;28;20226;-74
2021/09/12 01:37:45;;;;;;;16.90;12.57;;;17.90;99.90;;;;;;4981818;28;20195;-74
2021/09/12 01:40:12;;;;;;;18.30;13.77;;;17.90;99.90;;;;;;4982029;28;20262;-74
2021/09/12 01:42:37;;;;;;;15.70;12.40;;;17.90;99.90;;;;;;4997543;28;20179;-74
2021/09/12 01:45:03;;;;;;;17.80;13.13;;;17.90;99.90;;;;;;4981525;28;20805;-74
2021/09/12 01:47:29;;;;;;;16.63;13.07;;;17.90;99.90;;;;;;4981423;28;20215;-74
2021/09/12 01:49:54;;;;;;;16.80;13.33;;;17.90;99.90;;;;;;4997127;28;20182;-75
2021/09/12 01:52:20;;;;;;;17.43;12.47;;;17.90;99.90;;;;;;4997018;28;20266;-74
2021/09/12 01:54:45;;;;;;;15.90;12.73;;;17.80;99.90;;;;;;4996829;28;20180;-74
2021/09/12 01:57:11;;;;;;;16.80;13.00;;;17.90;99.90;;;;;;4997610;28;20284;-75
2021/09/12 01:59:36;;;;;;;18.63;12.50;;;17.90;99.90;;;;;;5012425;28;20176;-74
2021/09/12 02:02:02;;;;;;;19.20;13.40;;;17.90;99.90;;;;;;4994769;28;20651;-75
2021/09/12 02:04:28;;;;;;;19.20;13.93;;;17.90;99.90;;;;;;4996293;28;20690;-74
2021/09/12 02:06:53;;;;;;;17.83;13.73;;;17.80;99.90;;;;;;4997464;28;20246;-74
2021/09/12 02:09:19;;;;;;;24.63;13.43;;;17.80;99.90;;;;;;4981355;28;20677;-74
2021/09/12 02:11:44;;;;;;;17.80;14.23;;;17.80;99.90;;;;;;4995368;28;20533;-75
2021/09/12 02:14:10;;;;;;;17.07;13.77;;;17.90;99.90;;;;;;4995760;28;20181;-75
2021/09/12 02:16:35;;;;;;;19.43;14.87;;;17.80;99.90;;;;;;4979221;28;20199;-75
2021/09/12 02:19:01;;;;;;;16.90;13.33;;;17.80;99.90;;;;;;4979440;28;20316;-76
2021/09/12 02:21:26;;;;;;;17.63;13.40;;;17.80;99.90;;;;;;5013371;28;20203;-75
2021/09/12 02:23:52;;;;;;;17.63;13.87;;;17.80;99.90;;;;;;4995529;28;20253;-75
2021/09/12 02:26:18;;;;;;;18.13;13.93;;;17.80;99.90;;;;;;4995404;28;20227;-76
2021/09/12 02:28:43;;;;;;;17.77;13.37;;;17.80;99.90;;;;;;4979230;28;20274;-75
2021/09/12 02:31:09;;;;;;;16.93;13.53;;;17.70;99.90;;;;;;4980997;28;20187;-74
2021/09/12 02:33:34;;;;;;;18.30;13.83;;;17.70;99.90;;;;;;4980718;28;20659;-75
2021/09/12 02:36:01;;;;;;;17.73;12.80;;;17.60;99.90;;;;;;4995678;28;20222;-75
2021/09/12 02:38:27;;;;;;;19.63;13.77;;;17.70;99.90;;;;;;4995959;28;20234;-74
2021/09/12 02:40:53;;;;;;;20.50;13.20;;;17.70;99.90;;;;;;4981087;28;20187;-75
2021/09/12 02:43:18;;;;;;;18.53;12.93;;;17.60;99.90;;;;;;5014663;28;20171;-74
2021/09/12 02:45:44;;;;;;;20.40;13.60;;;17.60;99.90;;;;;;4998523;28;20210;-74
2021/09/12 02:48:10;;;;;;;15.57;12.73;;;17.60;99.90;;;;;;5000374;28;20565;-75
2021/09/12 02:50:35;;;;;;;16.00;13.00;;;17.50;99.90;;;;;;5000309;28;20176;-74
2021/09/12 02:53:01;;;;;;;19.10;12.57;;;17.50;99.90;;;;;;5000448;28;20168;-74
2021/09/12 02:55:26;;;;;;;17.17;12.33;;;17.50;99.90;;;;;;5000674;28;20175;-75
2021/09/12 02:57:52;;;;;;;15.77;12.13;;;17.50;99.90;;;;;;4999662;28;20227;-75
2021/09/12 03:00:17;;;;;;;17.33;13.03;;;17.50;99.90;;;;;;5000801;28;20234;-75
2021/09/12 03:02:43;;;;;;;18.07;12.30;;;17.50;99.90;;;;;;4983626;28;20682;-74
2021/09/12 03:05:09;;;;;;;19.97;12.37;;;17.50;99.90;;;;;;5001116;28;20187;-74
2021/09/12 03:07:34;;;;;;;16.47;12.53;;;17.50;99.90;;;;;;4998263;28;20214;-75
2021/09/12 03:10:00;;;;;;;15.73;12.13;;;17.40;99.90;;;;;;4997361;28;20203;-75
2021/09/12 03:12:25;;;;;;;20.37;13.17;;;17.50;99.90;;;;;;4997456;28;20535;-75
2021/09/12 03:14:51;;;;;;;17.90;12.70;;;17.50;99.90;;;;;;4997476;28;20176;-75
2021/09/12 03:17:17;;;;;;;17.30;12.40;;;17.50;99.90;;;;;;4997217;28;20195;-75
2021/09/12 03:19:43;;;;;;;17.17;11.97;;;17.50;99.90;;;;;;4997157;28;20573;-75
2021/09/12 03:22:08;;;;;;;18.17;12.43;;;17.50;99.90;;;;;;4997389;28;20168;-75
2021/09/12 03:24:34;;;;;;;17.03;12.73;;;17.50;99.90;;;;;;4997865;28;20777;-75
2021/09/12 03:26:59;;;;;;;17.20;11.90;;;17.50;99.90;;;;;;4981999;28;20701;-76
2021/09/12 03:29:25;;;;;;;17.13;12.70;;;17.50;99.90;;;;;;4981975;28;20183;-75
2021/09/12 03:31:51;;;;;;;19.23;12.13;;;17.50;99.90;;;;;;4998818;28;20172;-75
2021/09/12 03:34:16;;;;;;;20.37;12.77;;;17.40;99.90;;;;;;4998505;28;20174;-75
2021/09/12 03:36:42;;;;;;;17.07;12.27;;;17.50;99.90;;;;;;4982428;28;20604;-76
2021/09/12 03:39:07;;;;;;;16.07;11.60;;;17.50;99.90;;;;;;4982018;28;20184;-76
2021/09/12 03:41:33;;;;;;;17.57;12.33;;;17.40;99.90;;;;;;4998971;28;20184;-76
2021/09/12 03:43:58;;;;;;;18.17;12.57;;;17.40;99.90;;;;;;4981637;28;20182;-75
2021/09/12 03:46:24;;;;;;;16.97;11.50;;;17.40;99.90;;;;;;4997974;28;20805;-76
2021/09/12 03:48:49;;;;;;;15.80;11.50;;;17.40;99.90;;;;;;4998041;28;20551;-76
2021/09/12 03:51:15;;;;;;;19.20;12.60;;;17.40;99.90;;;;;;4998343;28;20616;-75
2021/09/12 03:53:40;;;;;;;18.60;12.53;;;17.40;99.90;;;;;;4998474;28;20573;-75
2021/09/12 03:56:06;;;;;;;19.03;12.67;;;17.30;99.90;;;;;;4982020;28;20250;-75
2021/09/12 03:58:32;;;;;;;17.30;12.47;;;17.30;99.90;;;;;;4997310;28;20182;-76
2021/09/12 04:00:57;;;;;;;19.03;12.67;;;17.30;99.90;;;;;;4981351;28;20242;-76
2021/09/12 04:03:23;;;;;;;20.23;12.10;;;17.30;99.90;;;;;;4998010;28;20195;-75
2021/09/12 04:05:48;;;;;;;16.03;11.83;;;17.30;99.90;;;;;;4997831;28;20207;-76
2021/09/12 04:08:14;;;;;;;22.37;12.73;;;17.30;99.90;;;;;;4981685;28;20286;-75
2021/09/12 04:10:39;;;;;;;18.83;12.13;;;17.40;99.90;;;;;;4981140;28;20187;-76
2021/09/12 04:13:05;;;;;;;22.77;13.43;;;17.40;99.90;;;;;;4998134;28;20180;-75
2021/09/12 04:15:31;;;;;;;21.37;12.87;;;17.30;99.90;;;;;;4997635;28;20640;-76
2021/09/12 04:17:56;;;;;;;19.77;12.53;;;17.30;99.90;;;;;;4981384;28;20231;-75
2021/09/12 04:20:22;;;;;;;15.43;12.33;;;17.30;99.90;;;;;;4997494;28;20580;-75
2021/09/12 04:22:47;;;;;;;18.70;12.87;;;17.40;99.90;;;;;;5015465;28;20236;-75
2021/09/12 04:25:13;;;;;;;17.83;12.47;;;17.30;99.90;;;;;;5000609;28;20205;-75
2021/09/12 04:27:38;;;;;;;19.17;12.97;;;17.30;99.90;;;;;;5016323;28;20195;-76
2021/09/12 04:30:05;;;;;;;21.33;13.13;;;17.30;99.90;;;;;;4983572;28;20209;-75
2021/09/12 04:32:31;;;;;;;20.93;13.73;;;17.40;99.90;;;;;;5004741;28;20204;-76
2021/09/12 04:34:56;;;;;;;21.70;13.60;;;17.30;99.90;;;;;;5007489;28;20167;-75
2021/09/12 04:37:22;;;;;;;23.00;13.70;;;17.30;99.90;;;;;;4989017;28;20195;-75
2021/09/12 04:39:47;;;;;;;21.43;13.20;;;17.30;99.90;;;;;;5006740;28;20175;-74
2021/09/12 04:42:13;;;;;;;20.17;12.97;;;17.30;99.90;;;;;;5005039;28;20262;-75
2021/09/12 04:44:38;;;;;;;19.73;13.77;;;17.30;99.90;;;;;;5004925;28;20184;-75
2021/09/12 04:47:04;;;;;;;22.37;13.50;;;17.30;99.90;;;;;;5010865;28;20203;-75
2021/09/12 04:49:29;;;;;;;20.27;13.77;;;17.20;99.90;;;;;;4999081;28;20170;-75
2021/09/12 04:51:55;;;;;;;24.23;14.63;;;17.20;99.90;;;;;;4984528;28;20186;-77
2021/09/12 04:54:21;;;;;;;20.93;13.67;;;17.20;99.90;;;;;;5016902;28;20236;-74
2021/09/12 04:56:46;;;;;;;22.47;14.23;;;17.20;99.90;;;;;;4998915;28;20248;-76
2021/09/12 04:59:12;;;;;;;24.63;14.40;;;17.20;99.90;;;;;;4979796;28;20211;-75
2021/09/12 05:01:37;;;;;;;20.10;14.17;;;17.20;99.90;;;;;;4979584;28;20187;-76
2021/09/12 05:04:03;;;;;;;26.23;14.00;;;17.20;99.90;;;;;;4995663;28;20191;-76
2021/09/12 05:06:29;;;;;;;23.33;14.47;;;17.20;99.90;;;;;;5013144;28;20691;-76
2021/09/12 05:08:54;;;;;;;21.57;13.37;;;17.10;99.90;;;;;;4978311;28;20175;-75
2021/09/12 05:11:20;;;;;;;20.83;14.80;;;17.10;99.90;;;;;;4979294;28;20663;-76
2021/09/12 05:13:45;;;;;;;25.43;14.77;;;17.10;99.90;;;;;;4997320;28;20803;-79
2021/09/12 05:16:12;;;;;;;25.70;15.83;;;17.10;99.90;;;;;;4983702;28;20200;-75
2021/09/12 05:18:38;;;;;;;28.13;16.00;;;17.10;99.90;;;;;;4982030;28;20179;-76
2021/09/12 05:21:03;;;;;;;23.07;16.07;;;17.00;99.90;;;;;;4980292;28;20234;-76
2021/09/12 05:23:29;;;;;;;25.80;16.23;;;17.10;99.90;;;;;;4997176;28;20577;-76
2021/09/12 05:25:55;;;;;;;25.07;16.07;;;17.10;99.90;;;;;;4980544;28;20649;-75
2021/09/12 05:28:20;;;;;;;24.90;15.97;;;17.10;99.90;;;;;;4989222;28;20274;-76
2021/09/12 05:30:46;;;;;;;25.63;16.53;;;17.10;99.90;;;;;;5000898;28;20655;-76
2021/09/12 05:33:12;;;;;;;25.03;16.87;;;17.20;99.90;;;;;;5000875;28;20175;-76
2021/09/12 05:35:37;;;;;;;24.90;15.53;;;17.20;99.90;;;;;;5000808;28;20546;-76
2021/09/12 05:38:03;;;;;;;24.50;15.70;;;17.10;99.90;;;;;;4984362;28;20183;-76
2021/09/12 05:40:28;;;;;;;27.13;15.97;;;17.10;99.90;;;;;;5000391;28;20224;-76
2021/09/12 05:42:54;;;;;;;27.90;17.33;;;17.20;99.90;;;;;;5000709;28;20182;-76
2021/09/12 05:45:21;;;;;;;27.27;17.53;;;17.20;99.90;;;;;;4983831;28;20558;-76
2021/09/12 05:47:46;;;;;;;27.47;18.33;;;17.20;99.90;;;;;;5001115;28;20193;-76
2021/09/12 05:50:12;;;;;;;28.30;17.73;;;17.20;99.90;;;;;;5000907;28;20194;-76
2021/09/12 05:52:37;;;;;;;29.67;18.80;;;17.30;99.90;;;;;;5000613;28;20171;-76
2021/09/12 05:55:03;;;;;;;27.00;18.00;;;17.30;99.90;;;;;;4984310;28;20209;-76
2021/09/12 05:57:29;;;;;;;29.40;18.37;;;17.30;99.90;;;;;;5016787;28;20202;-76
2021/09/12 05:59:54;;;;;;;26.53;17.97;;;17.40;99.90;;;;;;4984164;28;20187;-76
2021/09/12 06:02:20;;;;;;;25.27;17.27;;;17.40;99.90;;;;;;4984239;28;20197;-76
2021/09/12 06:04:46;;;;;;;29.00;16.87;;;17.40;99.90;;;;;;5016683;28;20225;-75
2021/09/12 06:07:11;;;;;;;26.70;17.20;;;17.50;99.90;;;;;;4999440;28;20214;-76
2021/09/12 06:09:38;;;;;;;25.27;16.47;;;17.50;99.90;;;;;;4999939;28;20171;-76
2021/09/12 06:12:05;;;;;;;27.87;17.90;;;17.60;99.90;;;;;;4983817;28;20174;-75
2021/09/12 06:14:31;;;;;;;24.93;16.53;;;17.60;99.90;;;;;;5000036;28;20618;-76
2021/09/12 06:16:56;;;;;;;22.70;14.47;;;17.70;99.90;;;;;;4984060;28;20287;-76
2021/09/12 06:19:22;;;;;;;24.03;14.20;;;17.70;99.90;;;;;;4983797;28;20179;-76
2021/09/12 06:21:47;;;;;;;20.53;13.30;;;17.70;99.90;;;;;;5003331;28;20185;-76
2021/09/12 06:24:13;;;;;;;23.50;13.40;;;17.70;99.90;;;;;;4987523;28;20639;-76
2021/09/12 06:26:38;;;;;;;19.20;12.90;;;17.70;99.90;;;;;;4987100;28;20238;-76
2021/09/12 06:29:04;;;;;;;20.03;13.37;;;17.70;99.90;;;;;;4986734;28;20182;-76
2021/09/12 06:31:30;;;;;;;25.97;13.70;;;17.70;99.90;;;;;;5019739;28;20258;-76
2021/09/12 06:33:55;;;;;;;22.17;12.77;;;17.70;99.90;;;;;;5003433;28;20171;-76
2021/09/12 06:36:21;;;;;;;19.73;11.97;;;17.80;99.90;;;;;;5019351;28;20190;-76
2021/09/12 06:38:46;;;;;;;21.10;12.97;;;17.70;99.90;;;;;;4986317;28;20179;-75
2021/09/12 06:41:12;;;;;;;18.50;12.70;;;17.80;99.90;;;;;;5003382;28;20210;-76
2021/09/12 06:43:37;;;;;;;17.87;11.73;;;17.80;99.90;;;;;;5019474;28;20703;-76
2021/09/12 06:46:03;;;;;;;18.50;12.57;;;17.90;99.90;;;;;;5037118;28;20234;-76
2021/09/12 06:48:29;;;;;;;18.47;12.13;;;18.10;99.90;;;;;;5003042;28;20654;-76
2021/09/12 06:50:57;;;;;;;17.17;11.60;;;18.10;99.90;;;;;;5003248;28;20193;-76
2021/09/12 06:53:23;;;;;;;17.43;11.63;;;18.10;99.90;;;;;;4987988;28;20175;-76
2021/09/12 06:55:48;;;;;;;17.70;11.30;;;18.20;99.90;;;;;;4980897;28;20851;-76
2021/09/12 06:58:14;;;;;;;22.30;12.00;;;18.20;99.90;;;;;;4970152;28;20221;-76
2021/09/12 07:00:40;;;;;;;17.90;11.63;;;18.30;99.90;;;;;;4992731;28;20700;-76
2021/09/12 07:03:06;;;;;;;17.67;11.83;;;18.40;99.90;;;;;;4993529;28;20214;-76
2021/09/12 07:05:31;;;;;;;16.97;12.97;;;18.40;99.90;;;;;;4998074;28;20648;-76
2021/09/12 07:07:57;;;;;;;17.67;11.60;;;18.50;99.90;;;;;;4999086;28;20587;-76
2021/09/12 07:10:22;;;;;;;15.97;11.30;;;18.50;99.90;;;;;;5004013;28;20237;-76
2021/09/12 07:12:48;;;;;;;17.77;11.60;;;18.50;99.90;;;;;;4994571;28;20234;-76
2021/09/12 07:15:13;;;;;;;19.40;11.10;;;18.60;99.90;;;;;;4977934;28;20205;-76
2021/09/12 07:17:39;;;;;;;18.57;11.77;;;18.50;99.90;;;;;;4985117;28;20270;-75
2021/09/12 07:20:05;;;;;;;16.80;11.47;;;18.60;99.90;;;;;;5001013;28;20183;-75
2021/09/12 07:22:31;;;;;;;18.43;11.30;;;18.70;99.90;;;;;;5037197;28;20206;-78
2021/09/12 07:24:56;;;;;;;17.50;11.53;;;18.90;99.90;;;;;;4987085;28;20179;-77
2021/09/12 07:27:22;;;;;;;16.80;10.80;;;19.20;99.90;;;;;;5004087;28;20709;-78
2021/09/12 07:29:47;;;;;;;18.53;10.70;;;19.30;99.90;;;;;;5005297;28;20718;-77
2021/09/12 07:32:13;;;;;;;14.47;10.40;;;19.40;99.90;;;;;;4985315;28;20544;-77
2021/09/12 07:34:39;;;;;;;15.27;10.07;;;19.60;99.90;;;;;;4988336;28;20590;-78
2021/09/12 07:37:04;;;;;;;15.87;9.47;;;19.80;99.90;;;;;;4985284;28;20207;-77
2021/09/12 07:39:30;;;;;;;13.67;8.83;;;19.90;99.90;;;;;;5001126;28;20239;-77
2021/09/12 07:41:55;;;;;;;14.23;8.23;;;19.90;99.90;;;;;;4970684;28;20183;-78
2021/09/12 07:44:21;;;;;;;12.60;7.23;;;20.10;99.90;;;;;;4974465;28;20208;-78
2021/09/12 07:46:46;;;;;;;14.27;7.17;;;20.30;99.90;;;;;;4997874;28;20210;-77
2021/09/12 07:49:12;;;;;;;10.03;6.50;;;20.40;99.90;;;;;;4983896;28;20210;-74
2021/09/12 07:51:37;;;;;;;8.87;6.37;;;20.40;99.90;;;;;;4999445;28;20168;-79
2021/09/12 07:54:03;;;;;;;31.20;7.67;;;20.40;99.90;;;;;;4997415;28;20175;-75
2021/09/12 07:56:29;;;;;;;11.57;6.83;;;20.30;99.90;;;;;;4980733;28;20221;-77
2021/09/12 07:58:54;;;;;;;12.73;7.40;;;20.40;99.90;;;;;;4996938;28;20194;-78
2021/09/12 08:01:20;;;;;;;10.20;6.83;;;20.60;99.90;;;;;;4997351;28;20187;-75
2021/09/12 08:03:45;;;;;;;13.60;6.70;;;20.70;99.90;;;;;;4995572;28;20184;-76
2021/09/12 08:06:11;;;;;;;12.37;6.80;;;20.80;99.90;;;;;;4977271;28;20694;-76
2021/09/12 08:08:36;;;;;;;9.37;6.30;;;20.80;99.90;;;;;;4977288;28;20231;-77
2021/09/12 08:11:02;;;;;;;9.47;5.73;;;21.00;99.90;;;;;;4978674;28;20169;-77
2021/09/12 08:13:27;;;;;;;10.63;5.43;;;21.00;99.90;;;;;;4977652;28;20176;-76
2021/09/12 08:15:53;;;;;;;9.73;5.40;;;21.00;99.90;;;;;;4977234;28;20545;-76
2021/09/12 08:18:19;;;;;;;10.33;5.43;;;21.00;99.90;;;;;;4978104;28;20702;-77
2021/09/12 08:20:45;;;;;;;8.43;5.17;;;21.00;99.90;;;;;;4980985;28;20234;-79
2021/09/12 08:23:11;;;;;;;9.37;4.90;;;21.00;99.90;;;;;;4980025;28;20659;-80
2021/09/12 08:25:37;;;;;;;10.67;4.10;;;21.00;99.90;;;;;;5001471;28;20190;-78
2021/09/12 08:28:02;;;;;;;11.27;4.53;;;21.00;99.90;;;;;;4966031;28;20176;-79
2021/09/12 08:30:28;;;;;;;8.03;4.30;;;21.00;99.90;;;;;;4983024;28;20184;-80
2021/09/12 08:32:53;;;;;;;7.40;4.13;;;21.10;99.90;;;;;;4980488;28;20182;-77
2021/09/12 08:35:19;;;;;;;9.57;5.13;;;21.20;99.90;;;;;;4990068;28;20226;-78
2021/09/12 08:37:45;;;;;;;10.77;5.63;;;21.30;99.90;;;;;;5008284;28;20588;-78
2021/09/12 08:40:10;;;;;;;9.77;5.80;;;21.40;99.90;;;;;;4996974;28;20187;-77
2021/09/12 08:42:37;;;;;;;9.57;5.63;;;21.60;99.90;;;;;;5004233;28;20179;-83
2021/09/12 08:45:03;;;;;;;12.57;5.97;;;21.80;99.90;;;;;;5012375;28;20191;-84
2021/09/12 08:47:29;;;;;;;11.00;6.17;;;22.10;99.90;;;;;;4984864;28;20302;-81
2021/09/12 08:49:56;;;;;;;12.37;6.10;;;22.30;99.90;;;;;;4968034;28;20208;-79
2021/09/12 08:52:21;;;;;;;10.67;6.37;;;22.20;99.90;;;;;;4953171;28;20235;-80
2021/09/12 08:54:47;;;;;;;9.90;6.57;;;22.10;99.90;;;;;;4955161;28;20219;-80
2021/09/12 08:57:13;;;;;;;11.43;6.40;;;22.00;99.90;;;;;;4954920;28;20207;-79
2021/09/12 08:59:39;;;;;;;9.07;6.30;;;21.80;99.90;;;;;;4987764;28;20195;-78
2021/09/12 09:02:05;;;;;;;8.33;5.93;;;21.80;99.90;;;;;;4984168;28;20291;-79
2021/09/12 09:04:35;;;;;;;10.30;5.70;;;21.80;99.90;;;;;;4978816;28;20209;-80
2021/09/12 09:07:10;;;;;;;9.73;5.53;;;21.60;99.90;;;;;;5020005;28;20206;-79
2021/09/12 09:09:45;;;;;;;10.93;6.40;;;21.60;99.90;;;;;;5003197;28;20194;-79
2021/09/12 09:12:26;;;;;;;8.17;5.40;;;21.60;99.90;;;;;;4995547;28;20655;-79
2021/09/12 09:15:04;;;;;;;11.07;5.93;;;21.50;99.90;;;;;;5012502;28;20636;-80
2021/09/12 09:17:34;;;;;;;9.80;5.03;;;21.40;99.90;;;;;;4987055;28;20249;-78
2021/09/12 09:20:00;;;;;;;7.43;4.70;;;21.60;99.90;;;;;;5005180;28;20180;-80
2021/09/12 09:22:37;;;;;;;7.47;4.97;;;21.60;99.90;;;;;;4967697;28;20180;-80
2021/09/12 09:25:26;;;;;;;9.90;4.50;;;21.70;99.90;;;;;;4983844;28;20171;-80
2021/09/12 09:28:00;;;;;;;6.00;3.93;;;21.60;99.90;;;;;;4989390;28;20207;-80
2021/09/12 09:30:35;;;;;;;7.27;3.80;;;21.50;99.90;;;;;;5001474;28;20175;-80
2021/09/12 09:33:34;;;;;;;4.87;2.80;;;21.50;99.90;;;;;;5009187;28;20174;-79
2021/09/12 09:36:06;;;;;;;4.93;2.03;;;21.70;99.90;;;;;;5004717;28;20211;-80
2021/09/12 09:38:36;;;;;;;4.13;1.97;;;21.80;99.90;;;;;;4962907;28;20184;-80
2021/09/12 09:41:17;;;;;;;5.53;1.97;;;22.00;99.90;;;;;;4963967;28;20715;-80
2021/09/12 09:43:51;;;;;;;4.83;2.30;;;21.80;99.90;;;;;;4963622;28;20184;-79
2021/09/12 09:46:38;;;;;;;4.20;2.77;;;21.90;99.90;;;;;;4963720;28;20266;-80
2021/09/12 09:49:27;;;;;;;6.87;2.73;;;21.90;99.90;;;;;;4978687;28;20183;-80
2021/09/12 09:52:00;;;;;;;5.30;3.20;;;21.90;99.90;;;;;;4964696;28;20660;-80
2021/09/12 09:54:30;;;;;;;6.37;2.77;;;22.00;99.90;;;;;;4984334;28;20214;-80
2021/09/12 09:56:56;;;;;;;6.23;2.30;;;22.10;99.90;;;;;;4979388;28;20199;-80
2021/09/12 09:59:22;;;;;;;3.67;2.05;;;22.20;99.90;;;;;;4983902;28;20182;-80
2021/09/12 10:01:50;;;;;;;5.93;2.70;;;22.40;99.90;;;;;;4983142;28;20202;-79
2021/09/12 10:04:26;;;;;;;6.93;2.87;;;22.80;99.90;;;;;;4999347;28;20187;-79
2021/09/12 10:06:52;;;;;;;4.33;2.50;;;23.00;99.90;;;;;;4986511;28;20233;-80
2021/09/12 10:09:18;;;;;;;5.13;2.33;;;22.70;99.90;;;;;;4967074;28;20176;-79
2021/09/12 10:12:02;;;;;;;5.30;2.30;;;22.40;99.90;;;;;;4998355;28;20175;-80
2021/09/12 10:14:50;;;;;;;6.63;2.47;;;22.30;99.90;;;;;;4983847;28;20200;-79
2021/09/12 10:17:20;;;;;;;5.63;2.30;;;22.20;99.90;;;;;;4982648;28;20204;-80
2021/09/12 10:19:46;;;;;;;4.73;1.90;;;22.00;99.90;;;;;;4980431;28;20183;-79
2021/09/12 10:22:16;;;;;;;5.10;1.97;;;21.70;99.90;;;;;;4995562;28;20255;-80
2021/09/12 10:25:00;;;;;;;4.50;2.07;;;21.60;99.90;;;;;;4984155;28;20180;-79
2021/09/12 10:27:34;;;;;;;5.73;2.23;;;21.50;99.90;;;;;;5003354;28;20215;-79
2021/09/12 10:30:16;;;;;;;5.03;1.90;;;21.60;99.90;;;;;;4988628;28;20203;-79
2021/09/12 10:32:41;;;;;;;4.90;1.73;;;21.70;99.90;;;;;;5000278;28;20171;-79
2021/09/12 10:35:26;;;;;;;6.00;1.83;;;21.70;99.90;;;;;;4970761;28;20175;-79
2021/09/12 10:38:03;;;;;;;2.93;1.70;;;21.60;99.90;;;;;;5007399;28;20199;-78
2021/09/12 10:40:47;;;;;;;5.73;2.17;;;21.60;99.90;;;;;;4981670;28;20202;-79
2021/09/12 10:43:25;;;;;;;4.90;2.10;;;21.50;99.90;;;;;;4998047;28;21326;-80
2021/09/12 10:46:06;;;;;;;5.67;1.80;;;21.40;99.90;;;;;;4999002;28;20302;-79
2021/09/12 10:48:36;;;;;;;3.47;2.00;;;21.50;99.90;;;;;;5019348;28;20218;-79
2021/09/12 10:51:24;;;;;;;4.57;1.90;;;21.70;99.90;;;;;;4985209;28;20179;-80
2021/09/12 10:53:59;;;;;;;4.67;1.77;;;21.70;99.90;;;;;;5000128;28;20254;-79
2021/09/12 10:56:25;;;;;;;6.43;1.90;;;21.70;99.90;;;;;;5016221;28;20560;-79
2021/09/12 10:58:52;;;;;;;5.53;1.70;;;21.80;99.90;;;;;;5018026;28;20191;-80
2021/09/12 11:01:28;;;;;;;4.80;2.07;;;21.70;99.90;;;;;;4985790;28;20175;-79
2021/09/12 11:03:58;;;;;;;3.53;1.97;;;21.50;99.90;;;;;;5016798;28;20187;-77
2021/09/12 11:06:28;;;;;;;5.50;2.07;;;21.50;99.90;;;;;;4998472;28;20207;-78
2021/09/12 11:08:53;;;;;;;3.97;1.90;;;21.40;99.90;;;;;;4968884;28;20169;-76
2021/09/12 11:11:19;;;;;;;6.37;2.10;;;21.30;99.90;;;;;;4998689;28;20184;-79
2021/09/12 11:13:45;;;;;;;5.30;2.20;;;21.20;99.90;;;;;;4981567;28;20191;-78
2021/09/12 11:16:12;;;;;;;5.60;2.17;;;21.30;99.90;;;;;;4978382;28;20291;-78
2021/09/12 11:19:00;;;;;;;4.60;1.63;;;21.30;99.90;;;;;;4984527;28;20256;-78
2021/09/12 11:21:42;;;;;;;5.10;1.67;;;21.30;99.90;;;;;;4986912;28;20175;-77
2021/09/12 11:24:13;;;;;;;4.37;1.70;;;21.50;99.90;;;;;;5017058;28;20175;-76
2021/09/12 11:26:40;;;;;;;5.77;1.97;;;21.40;99.90;;;;;;5016292;28;20215;-76
2021/09/12 11:29:08;;;;;;;5.07;1.70;;;21.40;99.90;;;;;;5014728;28;20186;-76
2021/09/12 11:31:35;;;;;;;4.60;2.10;;;21.30;99.90;;;;;;4998365;28;20163;-77
2021/09/12 11:34:01;;;;;;;7.17;2.47;;;21.20;99.90;;;;;;4999467;28;20168;-81
2021/09/12 11:36:27;;;;;;;5.67;2.20;;;21.20;99.90;;;;;;4983998;28;20254;-78
2021/09/12 11:38:56;;;;;;;4.30;2.23;;;21.20;99.90;;;;;;4983230;28;20180;-78
2021/09/12 11:41:23;;;;;;;6.17;1.97;;;21.20;99.90;;;;;;5000091;28;20294;-79
2021/09/12 11:43:56;;;;;;;4.00;2.20;;;21.30;99.90;;;;;;4984723;28;20179;-78
2021/09/12 11:46:22;;;;;;;6.80;2.10;;;21.40;99.90;;;;;;4983680;28;20253;-79
2021/09/12 11:48:59;;;;;;;5.10;2.37;;;21.50;99.90;;;;;;4982063;28;20211;-78
2021/09/12 11:51:28;;;;;;;4.87;2.10;;;21.60;99.90;;;;;;4998668;28;20167;-77
2021/09/12 11:54:08;;;;;;;5.40;2.37;;;21.60;99.90;;;;;;4997441;28;20199;-77
2021/09/12 11:56:34;;;;;;;5.47;2.40;;;21.80;99.90;;;;;;4997459;28;20195;-77
2021/09/12 11:59:00;;;;;;;4.17;2.20;;;22.00;99.90;;;;;;4981882;28;20176;-78
2021/09/12 12:01:25;;;;;;;10.00;2.53;;;22.10;99.90;;;;;;4999485;28;20202;-72
2021/09/12 12:03:51;;;;;;;5.83;2.30;;;22.10;99.90;;;;;;4999682;28;20652;-70
2021/09/12 12:06:16;;;;;;;4.23;2.40;;;22.00;99.90;;;;;;4978275;28;20281;-71
2021/09/12 12:09:11;;;;;;;4.33;2.37;;;21.90;99.90;;;;;;4995769;28;20194;-70
2021/09/12 12:11:39;;;;;;;7.50;2.53;;;21.90;99.90;;;;;;4996777;28;20277;-71
2021/09/12 12:14:06;;;;;;;6.40;2.57;;;21.90;99.90;;;;;;4965713;28;20574;-71
2021/09/12 12:16:39;;;;;;;4.40;2.47;;;21.90;99.90;;;;;;4981784;28;20188;-71
2021/09/12 12:19:10;;;;;;;5.27;2.60;;;22.00;99.90;;;;;;4997729;28;20183;-70
2021/09/12 12:21:36;;;;;;;5.10;2.30;;;21.90;99.90;;;;;;5016622;28;20168;-70
2021/09/12 12:24:19;;;;;;;4.27;2.43;;;21.90;99.90;;;;;;5014670;28;20190;-71
2021/09/12 12:26:46;;;;;;;4.20;2.30;;;22.00;99.90;;;;;;4984395;28;20215;-70
2021/09/12 12:29:12;;;;;;;4.17;2.57;;;22.10;99.90;;;;;;5001239;28;20721;-71
2021/09/12 12:31:38;;;;;;;4.53;2.50;;;22.20;99.90;;;;;;5000050;28;20245;-70
2021/09/12 12:34:04;;;;;;;4.63;2.30;;;22.30;99.90;;;;;;4982137;28;20648;-72
2021/09/12 12:36:29;;;;;;;4.10;2.70;;;22.20;99.90;;;;;;4980127;28;20258;-72